Time;durP1;ratioP1;P1;durP2;ratioP2;P2;SDS_P1;SDS_P2;PMS_P1;PMS_P2;Temp;Humidity;BMP_temperature;BMP_pressure;BME280_temperature;BME280_humidity;BME280_pressure;Samples;Min_cycle;Max_cycle;Signal;HPM_P1;HPM_P2
2021/08/16 00:00:35;;;;;;;5.18;0.55;;;18.50;67.50;;;21.10;55.39;100796.41;3190893;30;129887;-71
2021/08/16 00:03:41;;;;;;;0.45;0.35;;;18.40;67.70;;;21.07;55.29;100797.94;3189352;38;129901;-71
2021/08/16 00:06:47;;;;;;;0.00;0.00;;;18.30;67.80;;;21.10;55.29;100797.22;3189933;30;132816;-71
2021/08/16 00:09:53;;;;;;;4.32;1.75;;;18.20;67.90;;;21.09;55.27;100783.94;3190313;30;130212;-72
2021/08/16 00:13:01;;;;;;;0.00;0.00;;;18.20;68.00;;;21.00;55.07;100781.50;3187961;38;130352;-72
2021/08/16 00:16:09;;;;;;;1.42;0.47;;;18.10;67.90;;;20.97;55.02;100787.69;3189138;38;130587;-72
2021/08/16 00:19:15;;;;;;;3.80;1.05;;;18.10;68.00;;;20.91;55.24;100775.53;3188787;38;129767;-72
2021/08/16 00:22:24;;;;;;;0.10;0.10;;;18.00;67.90;;;20.84;55.31;100788.28;3188875;38;130822;-72
2021/08/16 00:25:29;;;;;;;0.75;0.75;;;18.00;68.00;;;20.77;55.36;100785.44;3190491;30;129549;-72
2021/08/16 00:28:38;;;;;;;0.20;0.20;;;17.90;68.00;;;20.73;55.31;100787.31;3189462;38;129891;-72
2021/08/16 00:31:44;;;;;;;20.77;0.90;;;17.80;68.10;;;20.78;55.02;100789.72;3187747;38;129736;-72
2021/08/16 00:34:50;;;;;;;0.25;0.25;;;17.80;68.20;;;20.83;54.94;100778.53;3190276;38;130767;-72
2021/08/16 00:37:56;;;;;;;0.10;0.10;;;17.90;68.20;;;20.88;55.06;100768.13;3190055;38;130939;-72
2021/08/16 00:41:03;;;;;;;0.00;0.00;;;17.90;68.20;;;20.87;54.85;100773.94;3188304;38;129532;-70
2021/08/16 00:44:13;;;;;;;0.40;0.40;;;17.90;68.20;;;20.84;54.87;100770.00;3188878;38;130067;-71
2021/08/16 00:47:21;;;;;;;1.17;0.75;;;17.90;68.10;;;20.82;54.76;100769.59;3190810;30;130470;-72
2021/08/16 00:50:28;;;;;;;0.17;0.17;;;17.90;68.10;;;20.83;54.92;100765.72;3188002;38;130704;-71
2021/08/16 00:53:34;;;;;;;0.98;0.70;;;17.90;68.10;;;20.86;55.18;100758.72;3189968;30;131896;-70
2021/08/16 00:56:42;;;;;;;0.10;0.10;;;17.90;68.10;;;20.83;55.21;100762.19;3189983;30;130423;-70
2021/08/16 00:59:51;;;;;;;0.30;0.20;;;17.90;68.00;;;20.83;54.88;100765.72;3188866;38;130117;-72
2021/08/16 01:02:57;;;;;;;0.10;0.10;;;17.90;68.00;;;20.80;55.01;100760.97;3188405;38;129929;-70
2021/08/16 01:06:05;;;;;;;0.00;0.00;;;17.90;68.00;;;20.75;55.06;100757.78;3190744;30;130392;-71
2021/08/16 01:09:11;;;;;;;0.15;0.15;;;17.80;68.00;;;20.72;54.98;100756.59;3189563;30;129701;-70
2021/08/16 01:12:17;;;;;;;5.38;2.40;;;17.80;68.00;;;20.75;54.97;100757.78;3187932;38;130322;-70
2021/08/16 01:15:28;;;;;;;10.43;1.20;;;17.80;68.10;;;20.72;55.12;100759.31;3188577;38;131093;-71
2021/08/16 01:18:37;;;;;;;10.52;0.85;;;17.80;68.10;;;20.79;54.90;100761.34;3188505;38;129890;-70
2021/08/16 01:21:42;;;;;;;2.55;0.73;;;17.80;68.10;;;20.76;55.05;100753.91;3189404;30;131474;-70
2021/08/16 01:24:48;;;;;;;2.10;1.45;;;17.80;68.10;;;20.73;54.93;100758.16;3189590;38;130863;-72
2021/08/16 01:27:57;;;;;;;2.75;1.08;;;17.80;68.20;;;20.69;54.90;100768.19;3189357;30;130092;-71
2021/08/16 01:31:07;;;;;;;0.13;0.13;;;17.80;68.10;;;20.71;54.82;100763.16;3187472;38;130906;-72
2021/08/16 01:34:14;;;;;;;0.08;0.08;;;17.70;68.10;;;20.74;54.78;100764.38;3188683;38;130181;-72
2021/08/16 01:37:21;;;;;;;1.98;0.22;;;17.80;68.10;;;20.76;55.02;100765.59;3188395;38;130387;-72
2021/08/16 01:40:28;;;;;;;0.43;0.43;;;17.80;68.20;;;20.75;54.72;100766.75;3189726;30;129765;-72
2021/08/16 01:43:36;;;;;;;1.80;0.28;;;17.80;68.20;;;20.73;54.99;100763.63;3189179;38;131153;-71
2021/08/16 01:46:42;;;;;;;0.28;0.28;;;17.80;68.10;;;20.76;54.68;100756.63;3193857;38;129968;-71
2021/08/16 01:49:50;;;;;;;0.10;0.10;;;17.80;68.80;;;20.80;54.76;100758.25;3195180;38;130800;-70
2021/08/16 01:52:55;;;;;;;1.80;0.25;;;17.80;68.10;;;20.79;54.84;100747.72;3189996;38;130637;-71
2021/08/16 01:56:01;;;;;;;0.47;0.30;;;17.80;68.10;;;20.78;54.95;100746.16;3189420;30;130129;-70
2021/08/16 01:59:10;;;;;;;12.30;0.90;;;17.80;68.20;;;20.73;54.98;100743.75;3188956;30;129298;-72
2021/08/16 02:02:16;;;;;;;0.30;0.30;;;17.80;68.80;;;20.71;54.88;100746.81;3188761;38;131668;-71
2021/08/16 02:05:22;;;;;;;0.70;0.25;;;17.70;68.20;;;20.69;54.90;100742.91;3187656;38;129949;-70
2021/08/16 02:08:28;;;;;;;3.33;2.00;;;17.70;68.10;;;20.68;55.18;100749.53;3188793;30;131174;-72
2021/08/16 02:11:34;;;;;;;0.57;0.57;;;17.70;68.20;;;20.67;55.26;100750.69;3188526;38;129914;-72
2021/08/16 02:14:44;;;;;;;2.17;0.55;;;17.70;68.30;;;20.74;54.74;100750.75;3187093;38;130392;-71
2021/08/16 02:17:49;;;;;;;1.02;0.85;;;17.70;68.30;;;20.77;54.84;100752.75;3189214;30;131316;-72
2021/08/16 02:20:56;;;;;;;0.75;0.75;;;17.70;68.20;;;20.78;54.92;100749.66;3190458;30;130759;-72
2021/08/16 02:24:01;;;;;;;0.30;0.30;;;17.70;68.30;;;20.76;54.90;100746.53;3188845;38;130410;-71
2021/08/16 02:27:09;;;;;;;8.32;1.40;;;17.70;68.20;;;20.78;54.84;100733.31;3189372;30;130288;-70
2021/08/16 02:30:21;;;;;;;9.63;2.05;;;17.80;68.30;;;20.78;54.78;100740.69;3188554;38;130763;-71
2021/08/16 02:33:27;;;;;;;0.08;0.08;;;17.80;68.30;;;20.78;54.86;100737.97;3188054;38;130616;-70
2021/08/16 02:36:34;;;;;;;0.50;0.50;;;17.80;68.30;;;20.76;54.99;100737.56;3189097;38;130686;-70
2021/08/16 02:39:40;;;;;;;16.35;1.85;;;17.70;68.20;;;20.76;55.04;100737.56;3189261;30;129837;-70
2021/08/16 02:42:46;;;;;;;1.13;0.85;;;17.70;68.30;;;20.77;55.12;100734.47;3189796;30;129764;-70
2021/08/16 02:45:55;;;;;;;0.45;0.32;;;17.80;68.40;;;20.73;55.15;100732.84;3189432;38;130702;-70
2021/08/16 02:49:00;;;;;;;0.65;0.65;;;17.70;68.30;;;20.68;55.13;100736.69;3187425;38;130924;-72
2021/08/16 02:52:10;;;;;;;0.73;0.73;;;17.70;68.30;;;20.71;54.95;100738.66;3189866;30;129854;-70
2021/08/16 02:55:16;;;;;;;0.00;0.00;;;17.70;68.40;;;20.67;55.30;100739.78;3188586;30;129725;-70
2021/08/16 02:58:23;;;;;;;0.10;0.10;;;17.70;68.40;;;20.67;55.00;100737.81;3187227;30;130276;-70
2021/08/16 03:01:31;;;;;;;0.00;0.00;;;17.70;68.50;;;20.66;54.98;100741.72;3188110;38;132778;-72
2021/08/16 03:04:38;;;;;;;0.45;0.45;;;17.60;68.40;;;20.67;55.22;100740.56;3186020;38;129927;-70
2021/08/16 03:07:43;;;;;;;0.35;0.28;;;17.70;68.60;;;20.68;55.21;100733.19;3189637;38;130909;-70
2021/08/16 03:10:50;;;;;;;0.30;0.20;;;17.70;68.50;;;20.72;55.01;100732.09;3189830;38;129894;-70
2021/08/16 03:13:56;;;;;;;0.10;0.10;;;17.60;69.10;;;20.67;55.12;100734.34;3190760;30;129825;-71
2021/08/16 03:17:06;;;;;;;9.18;0.70;;;17.70;68.50;;;20.69;54.97;100734.75;3189444;38;130735;-70
2021/08/16 03:20:14;;;;;;;0.20;0.20;;;17.60;69.10;;;20.61;55.33;100731.13;3188954;38;130143;-70
2021/08/16 03:23:20;;;;;;;0.50;0.50;;;17.60;68.60;;;20.56;55.11;100729.91;3188832;38;130100;-70
2021/08/16 03:26:25;;;;;;;0.60;0.60;;;17.60;68.60;;;20.57;55.41;100732.25;3187915;30;130022;-70
2021/08/16 03:29:31;;;;;;;26.75;1.65;;;17.60;68.60;;;20.59;55.50;100727.22;3189464;38;129928;-71
2021/08/16 03:32:39;;;;;;;0.55;0.55;;;17.60;68.60;;;20.58;55.26;100721.00;3190105;30;129729;-72
2021/08/16 03:35:45;;;;;;;0.40;0.30;;;17.70;68.70;;;20.57;55.47;100728.75;3190831;30;129921;-71
2021/08/16 03:38:51;;;;;;;0.32;0.32;;;17.60;68.60;;;20.57;55.64;100723.28;3189534;30;131572;-71
2021/08/16 03:41:57;;;;;;;0.13;0.13;;;17.70;68.70;;;20.53;55.59;100733.34;3186907;38;130291;-71
2021/08/16 03:45:04;;;;;;;1.05;0.98;;;17.60;68.60;;;20.53;55.64;100725.19;3189142;30;130737;-72
2021/08/16 03:48:13;;;;;;;0.30;0.30;;;17.60;68.70;;;20.51;55.54;100716.59;3189328;30;132972;-71
2021/08/16 03:51:19;;;;;;;1.05;0.40;;;17.60;68.70;;;20.49;55.56;100711.50;3189342;30;130204;-72
2021/08/16 03:54:25;;;;;;;0.55;0.55;;;17.60;68.70;;;20.47;55.57;100719.25;3188956;30;131077;-72
2021/08/16 03:57:31;;;;;;;0.80;0.70;;;17.60;68.80;;;20.47;55.75;100710.34;3187993;30;130798;-71
2021/08/16 04:00:37;;;;;;;12.75;0.60;;;17.50;68.90;;;20.42;55.79;100707.94;3189973;30;129935;-72
2021/08/16 04:03:46;;;;;;;0.20;0.20;;;17.60;68.90;;;20.40;55.65;100708.28;3189521;30;130719;-72
2021/08/16 04:06:53;;;;;;;0.25;0.22;;;17.50;68.90;;;20.42;55.65;100707.94;3189928;38;129932;-71
2021/08/16 04:09:58;;;;;;;1.25;1.13;;;17.50;68.90;;;20.39;55.83;100700.47;3190313;30;130913;-71
2021/08/16 04:13:06;;;;;;;0.10;0.10;;;17.50;68.90;;;20.38;55.89;100699.72;3189128;38;129830;-71
2021/08/16 04:16:12;;;;;;;0.60;0.55;;;17.50;69.00;;;20.40;55.77;100697.41;3188873;30;131205;-70
2021/08/16 04:19:24;;;;;;;0.43;0.43;;;17.50;69.00;;;20.40;55.45;100702.84;3189565;38;130667;-70
2021/08/16 04:22:29;;;;;;;0.82;0.82;;;17.40;68.90;;;20.37;55.77;100692.69;3188502;30;129683;-71
2021/08/16 04:25:36;;;;;;;5.25;1.50;;;17.50;69.00;;;20.35;55.82;100699.66;3189077;38;129800;-70
2021/08/16 04:28:41;;;;;;;0.63;0.47;;;17.40;69.00;;;20.29;55.92;100704.63;3190428;38;129889;-70
2021/08/16 04:31:47;;;;;;;0.63;0.43;;;17.40;69.00;;;20.27;55.95;100689.81;3188066;38;131415;-71
2021/08/16 04:34:56;;;;;;;3.67;0.32;;;17.40;69.00;;;20.30;55.93;100702.69;3187969;38;129831;-72
2021/08/16 04:38:03;;;;;;;0.20;0.20;;;17.40;69.10;;;20.35;55.76;100699.66;3189819;38;129728;-72
2021/08/16 04:41:08;;;;;;;0.73;0.73;;;17.40;69.20;;;20.40;55.65;100704.75;3189401;30;130667;-71
2021/08/16 04:44:14;;;;;;;0.10;0.10;;;17.40;69.10;;;20.44;55.70;100709.13;3190761;30;129899;-70
2021/08/16 04:47:20;;;;;;;0.63;0.63;;;17.40;69.20;;;20.45;55.65;100704.47;3188850;38;130666;-70
2021/08/16 04:50:28;;;;;;;1.50;0.50;;;17.40;69.10;;;20.50;55.47;100694.03;3188789;38;130415;-71
2021/08/16 04:53:34;;;;;;;2.17;0.55;;;17.50;69.20;;;20.54;55.52;100702.25;3188710;30;130171;-70
2021/08/16 04:56:40;;;;;;;0.20;0.20;;;17.50;69.20;;;20.52;55.41;100705.34;3188530;38;130392;-71
2021/08/16 04:59:46;;;;;;;0.10;0.10;;;17.50;69.00;;;20.55;55.52;100699.16;3190302;30;130589;-71
2021/08/16 05:02:52;;;;;;;1.42;0.22;;;17.60;69.10;;;20.59;55.44;100691.84;3189207;38;130969;-71
2021/08/16 05:06:05;;;;;;;0.30;0.30;;;17.60;69.10;;;20.58;55.24;100691.03;3188452;38;133123;-71
2021/08/16 05:09:12;;;;;;;0.10;0.10;;;17.60;69.10;;;20.62;55.19;100691.88;3190462;30;129887;-71
2021/08/16 05:12:18;;;;;;;0.32;0.28;;;17.60;69.10;;;20.68;55.39;100684.94;3189364;30;129932;-71
2021/08/16 05:15:25;;;;;;;1.45;0.52;;;17.60;69.10;;;20.65;55.15;100679.47;3188108;38;131178;-71
2021/08/16 05:18:31;;;;;;;3.95;0.45;;;17.60;69.10;;;20.69;55.18;100678.34;3190944;30;129673;-71
2021/08/16 05:21:39;;;;;;;6.68;1.75;;;17.60;69.10;;;20.69;55.22;100675.63;3190318;30;129875;-71
2021/08/16 05:24:45;;;;;;;0.08;0.08;;;17.60;69.10;;;20.66;55.35;100670.91;3189053;38;130395;-71
2021/08/16 05:27:52;;;;;;;24.45;0.73;;;17.60;69.00;;;20.62;55.29;100677.47;3188549;38;131109;-70
2021/08/16 05:30:58;;;;;;;0.20;0.20;;;17.60;69.10;;;20.61;55.45;100676.69;3189005;30;130519;-71
2021/08/16 05:34:07;;;;;;;6.03;1.65;;;17.60;69.10;;;20.58;55.41;100680.16;3187529;38;129751;-71
2021/08/16 05:37:15;;;;;;;1.75;1.15;;;17.60;69.20;;;20.55;55.63;100679.31;3190343;30;131307;-71
2021/08/16 05:40:21;;;;;;;0.13;0.13;;;17.50;69.20;;;20.63;55.35;100668.94;3190128;30;130808;-71
2021/08/16 05:43:27;;;;;;;0.40;0.30;;;17.60;69.20;;;20.72;55.24;100677.63;3189784;38;129700;-71
2021/08/16 05:46:33;;;;;;;7.57;1.75;;;17.60;69.30;;;20.82;55.10;100681.59;3189218;38;129892;-71
2021/08/16 05:49:39;;;;;;;6.00;2.22;;;17.60;69.20;;;20.91;55.25;100668.53;3189365;38;129895;-71
2021/08/16 05:52:48;;;;;;;0.30;0.15;;;17.70;69.20;;;21.03;54.90;100671.78;3190898;30;129803;-71
2021/08/16 05:55:55;;;;;;;0.00;0.00;;;17.80;69.10;;;21.10;54.72;100663.69;3187525;38;129697;-71
2021/08/16 05:59:01;;;;;;;2.33;0.32;;;17.90;69.00;;;21.15;54.66;100668.81;3189568;38;130667;-71
2021/08/16 06:02:09;;;;;;;0.00;0.00;;;18.00;69.00;;;21.17;55.02;100671.16;3188371;38;130173;-71
2021/08/16 06:05:15;;;;;;;41.70;1.33;;;18.00;68.90;;;21.20;54.53;100676.63;3187180;38;131071;-71
2021/08/16 06:08:24;;;;;;;3.20;1.67;;;18.10;68.90;;;21.24;54.64;100676.69;3188984;30;131088;-71
2021/08/16 06:11:32;;;;;;;0.20;0.20;;;18.10;68.90;;;21.30;54.82;100673.22;3188105;30;130640;-71
2021/08/16 06:14:37;;;;;;;0.32;0.30;;;18.10;68.80;;;21.38;54.68;100683.06;3188408;38;131630;-71
2021/08/16 06:17:43;;;;;;;0.10;0.10;;;18.10;68.80;;;21.43;54.57;100679.19;3189188;38;130820;-71
2021/08/16 06:20:49;;;;;;;5.05;2.10;;;18.20;68.80;;;21.47;54.53;100678.06;3188181;38;130023;-71
2021/08/16 06:23:58;;;;;;;3.00;0.60;;;18.20;68.70;;;21.68;54.23;100686.50;3188759;38;130694;-71
2021/08/16 06:27:05;;;;;;;0.00;0.00;;;18.30;68.70;;;21.65;53.98;100681.78;3188497;38;129653;-70
2021/08/16 06:30:14;;;;;;;4.97;2.10;;;18.40;68.60;;;21.64;54.33;100679.44;3190048;38;129801;-71
2021/08/16 06:33:20;;;;;;;0.30;0.30;;;18.40;68.70;;;21.60;54.57;100684.03;3190117;30;130192;-72
2021/08/16 06:36:28;;;;;;;0.25;0.25;;;18.40;68.70;;;21.45;54.91;100694.03;3188065;38;130439;-72
2021/08/16 06:39:37;;;;;;;6.63;0.63;;;18.30;68.70;;;21.31;55.10;100685.69;3189331;38;130153;-71
2021/08/16 06:42:43;;;;;;;0.63;0.45;;;18.30;68.80;;;21.16;55.35;100675.81;3187965;38;129769;-71
2021/08/16 06:45:49;;;;;;;0.52;0.52;;;18.20;68.70;;;21.05;55.36;100676.84;3189275;38;130767;-72
2021/08/16 06:48:55;;;;;;;0.80;0.40;;;18.10;68.90;;;20.87;55.95;100678.59;3187622;38;132263;-71
2021/08/16 06:52:01;;;;;;;0.73;0.52;;;18.00;69.00;;;20.61;56.08;100676.69;3186256;38;130065;-70
2021/08/16 06:55:12;;;;;;;0.10;0.10;;;17.90;69.10;;;20.44;56.69;100673.72;3189788;30;129998;-71
2021/08/16 06:58:18;;;;;;;0.13;0.13;;;17.70;69.40;;;20.48;56.40;100671.84;3188424;30;130610;-71
2021/08/16 07:01:25;;;;;;;0.40;0.40;;;17.60;69.60;;;20.57;56.15;100663.41;3190149;38;130911;-70
2021/08/16 07:04:32;;;;;;;0.55;0.30;;;17.60;69.60;;;20.72;55.70;100666.72;3190010;30;131439;-70
2021/08/16 07:07:41;;;;;;;0.75;0.75;;;17.60;69.70;;;20.89;55.12;100670.84;3189365;38;129686;-70
2021/08/16 07:10:49;;;;;;;0.50;0.30;;;17.70;69.50;;;20.71;55.54;100672.53;3194728;38;130652;-70
2021/08/16 07:13:56;;;;;;;2.47;1.75;;;17.70;69.40;;;20.60;55.64;100691.44;3195423;30;131209;-71
2021/08/16 07:17:01;;;;;;;0.00;0.00;;;17.60;69.50;;;20.46;55.97;100693.19;3187299;38;130218;-71
2021/08/16 07:20:11;;;;;;;0.68;0.45;;;17.60;69.60;;;20.35;56.40;100696.91;3187715;30;129858;-71
2021/08/16 07:23:17;;;;;;;0.25;0.25;;;17.50;69.60;;;20.45;55.99;100690.88;3188944;38;130033;-71
2021/08/16 07:26:26;;;;;;;0.28;0.28;;;17.50;69.90;;;20.60;55.66;100687.97;3189661;30;130174;-71
2021/08/16 07:29:32;;;;;;;0.05;0.05;;;17.50;69.90;;;21.09;54.58;100692.09;3189089;30;129733;-71
2021/08/16 07:32:38;;;;;;;0.70;0.70;;;17.70;69.90;;;21.22;54.42;100689.91;3187402;38;130714;-71
2021/08/16 07:35:45;;;;;;;0.00;0.00;;;17.90;69.40;;;21.17;54.60;100688.28;3188205;38;129897;-70
2021/08/16 07:38:51;;;;;;;0.10;0.10;;;17.90;69.30;;;21.47;54.23;100691.72;3187301;38;131072;-71
2021/08/16 07:41:59;;;;;;;0.32;0.22;;;18.10;69.10;;;21.73;54.01;100701.72;3189257;30;130849;-71
2021/08/16 07:45:10;;;;;;;0.30;0.30;;;18.30;68.90;;;21.50;54.49;100704.59;3185759;38;129983;-71
2021/08/16 07:48:15;;;;;;;0.55;0.08;;;18.30;68.80;;;21.34;55.08;100720.41;3185544;38;131530;-71
2021/08/16 07:51:22;;;;;;;0.03;0.03;;;18.30;68.90;;;21.22;55.26;100719.88;3186070;38;131382;-72
2021/08/16 07:54:28;;;;;;;0.77;0.77;;;18.30;69.00;;;21.16;55.21;100738.50;3186742;30;129825;-72
2021/08/16 07:57:37;;;;;;;0.28;0.28;;;18.20;69.00;;;20.98;55.66;100751.09;3186136;30;130659;-71
2021/08/16 08:00:43;;;;;;;0.00;0.00;;;18.10;69.00;;;20.60;56.32;100740.47;3186531;38;130955;-71
2021/08/16 08:03:49;;;;;;;0.10;0.10;;;18.00;68.80;;;20.36;56.67;100733.88;3187273;38;130783;-71
2021/08/16 08:06:54;;;;;;;0.20;0.20;;;17.80;68.90;;;20.42;56.31;100735.91;3187187;38;131515;-71
2021/08/16 08:10:00;;;;;;;0.10;0.10;;;17.60;69.10;;;20.69;55.71;100738.25;3187846;30;131362;-70
2021/08/16 08:13:14;;;;;;;0.00;0.00;;;17.70;69.20;;;20.91;55.05;100734.69;3188893;30;131941;-70
2021/08/16 08:16:20;;;;;;;0.20;0.20;;;17.80;69.00;;;20.98;54.80;100736.72;3189863;38;131309;-70
2021/08/16 08:19:26;;;;;;;0.00;0.00;;;17.90;68.90;;;20.90;55.24;100733.13;3190338;38;129660;-70
2021/08/16 08:22:34;;;;;;;0.00;0.00;;;17.90;68.90;;;20.91;55.40;100736.63;3188520;38;130871;-70
2021/08/16 08:25:40;;;;;;;0.00;0.00;;;17.80;68.90;;;21.05;55.04;100745.78;3189196;38;131872;-71
2021/08/16 08:28:51;;;;;;;0.00;0.00;;;17.90;69.10;;;21.48;54.24;100750.53;3189768;30;130078;-71
2021/08/16 08:31:57;;;;;;;0.17;0.17;;;18.00;69.00;;;21.90;53.23;100752.91;3187363;38;130703;-71
2021/08/16 08:35:11;;;;;;;0.20;0.20;;;18.30;68.70;;;22.44;52.40;100753.75;3186775;38;130748;-71
2021/08/16 08:38:18;;;;;;;0.00;0.00;;;18.60;68.30;;;23.55;50.14;100750.00;3187562;38;131112;-71
2021/08/16 08:41:25;;;;;;;0.10;0.10;;;19.10;67.60;;;24.04;49.64;100754.38;3190913;30;130717;-72
2021/08/16 08:44:38;;;;;;;0.00;0.00;;;19.60;67.00;;;25.03;48.00;100753.03;3189062;30;130656;-71
2021/08/16 08:47:46;;;;;;;0.15;0.15;;;20.10;66.50;;;28.47;41.54;100752.50;3189331;30;130116;-72
2021/08/16 08:50:52;;;;;;;0.38;0.08;;;21.10;65.90;;;29.62;40.72;100760.41;3190571;30;130306;-72
2021/08/16 08:53:58;;;;;;;0.10;0.10;;;22.10;65.40;;;31.14;39.52;100760.41;3188659;38;130814;-72
2021/08/16 08:57:27;;;;;;;0.32;0.30;;;23.20;64.90;;;30.17;42.98;100755.53;3188066;38;130749;-73
2021/08/16 09:00:36;;;;;;;0.00;0.00;;;24.00;64.10;;;30.15;43.66;100755.19;3194482;38;129641;-73
2021/08/16 09:03:51;;;;;;;0.20;0.20;;;24.40;63.80;;;30.36;44.13;100756.66;3193339;38;129619;-73
2021/08/16 09:06:59;;;;;;;0.35;0.28;;;24.80;63.60;;;30.07;45.10;100761.34;3189263;38;130825;-73
2021/08/16 09:10:15;;;;;;;0.00;0.00;;;25.10;63.30;;;29.93;45.66;100767.16;3187728;38;130787;-73
2021/08/16 09:13:28;;;;;;;;;;;25.10;63.30;;;28.85;48.12;100773.06;3187130;38;130736;-73
2021/08/16 09:16:40;;;;;;;0.10;0.10;;;25.00;63.50;;;28.16;49.46;100770.34;3186519;30;130437;-73
2021/08/16 09:19:46;;;;;;;0.00;0.00;;;24.70;64.00;;;27.76;50.02;100778.84;3186505;38;130653;-73
2021/08/16 09:23:02;;;;;;;0.32;0.32;;;24.40;64.20;;;27.17;51.23;100779.66;3190481;30;130750;-73
2021/08/16 09:26:10;;;;;;;0.30;0.30;;;24.10;64.40;;;26.34;53.10;100777.34;3185266;38;130625;-73
2021/08/16 09:29:20;;;;;;;0.15;0.15;;;23.60;65.10;;;25.33;54.85;100775.28;3186773;38;131195;-73
2021/08/16 09:32:37;;;;;;;1.33;1.20;;;23.00;65.80;;;24.25;56.72;100789.97;3187089;38;129944;-73
2021/08/16 09:35:56;;;;;;;0.00;0.00;;;22.30;66.50;;;23.43;57.88;100785.94;3187408;38;131437;-73
2021/08/16 09:39:01;;;;;;;0.10;0.10;;;21.50;67.40;;;22.99;58.72;100798.97;3187248;38;131830;-74
2021/08/16 09:42:10;;;;;;;2.65;1.15;;;21.00;68.20;;;22.74;58.31;100809.78;3186144;38;130597;-73
2021/08/16 09:45:30;;;;;;;1.55;0.20;;;20.60;68.60;;;22.50;58.68;100809.59;3186658;38;129701;-73
2021/08/16 09:48:39;;;;;;;0.25;0.25;;;20.20;68.90;;;22.28;58.57;100814.06;3186588;38;130216;-73
2021/08/16 09:51:46;;;;;;;0.22;0.22;;;20.00;69.40;;;22.36;58.03;100812.19;3185793;38;131378;-72
2021/08/16 09:54:52;;;;;;;0.00;0.00;;;19.80;69.50;;;22.29;57.61;100810.19;3188028;30;131790;-73
2021/08/16 09:58:01;;;;;;;0.00;0.00;;;19.70;69.40;;;22.33;57.29;100823.88;3182025;38;130362;-73
2021/08/16 10:01:08;;;;;;;0.10;0.10;;;19.60;69.40;;;22.73;56.18;100823.81;3186489;38;130902;-72
2021/08/16 10:04:16;;;;;;;0.08;0.08;;;19.60;69.20;;;23.15;55.12;100824.84;3185426;38;129998;-73
2021/08/16 10:07:26;;;;;;;0.20;0.20;;;19.80;68.70;;;23.53;54.18;100831.66;3183627;30;130888;-73
2021/08/16 10:10:33;;;;;;;0.52;0.45;;;20.00;68.40;;;24.14;52.64;100832.22;3186475;38;130757;-72
2021/08/16 10:13:40;;;;;;;0.22;0.22;;;20.30;67.80;;;24.83;51.41;100830.66;3186032;38;129733;-72
2021/08/16 10:16:52;;;;;;;3.78;0.08;;;20.50;67.60;;;25.24;50.93;100829.78;3185267;38;131372;-73
2021/08/16 10:20:06;;;;;;;0.13;0.13;;;20.80;67.60;;;25.89;50.15;100827.91;3185765;38;130786;-73
2021/08/16 10:23:23;;;;;;;0.85;0.73;;;21.30;67.60;;;27.40;48.01;100830.84;3186205;30;134252;-73
2021/08/16 10:26:33;;;;;;;0.03;0.03;;;22.00;67.50;;;28.77;46.37;100826.78;3183986;38;131541;-73
2021/08/16 10:29:42;;;;;;;0.10;0.10;;;23.10;66.50;;;28.60;47.32;100825.16;3185585;38;131790;-73
2021/08/16 10:32:48;;;;;;;0.00;0.00;;;23.70;65.30;;;28.40;48.14;100837.31;3186176;38;130287;-73
2021/08/16 10:35:58;;;;;;;2.67;0.65;;;23.90;64.80;;;28.38;48.66;100834.97;3184212;38;130161;-73
2021/08/16 10:39:20;;;;;;;1.85;0.20;;;24.10;64.80;;;28.76;48.10;100818.94;3184034;38;130300;-73
2021/08/16 10:42:37;;;;;;;0.32;0.22;;;24.30;64.60;;;29.07;47.57;100818.34;3184867;38;130262;-73
2021/08/16 10:45:49;;;;;;;0.00;0.00;;;24.60;64.40;;;29.18;47.83;100825.22;3184556;38;130118;-73
2021/08/16 10:49:12;;;;;;;1.15;0.28;;;24.80;64.10;;;29.15;48.04;100830.84;3185834;38;129857;-73
2021/08/16 10:52:24;;;;;;;0.35;0.35;;;25.00;64.10;;;28.64;49.52;100831.38;3185916;30;131147;-72
2021/08/16 10:55:30;;;;;;;0.22;0.20;;;24.90;64.10;;;27.37;52.43;100847.41;3183158;38;131460;-73
2021/08/16 10:58:40;;;;;;;0.00;0.00;;;24.60;64.40;;;25.99;54.79;100853.75;3186340;30;131614;-73
2021/08/16 11:01:49;;;;;;;0.00;0.00;;;23.80;65.20;;;25.16;55.94;100857.59;3185620;30;130049;-71
2021/08/16 11:05:09;;;;;;;0.17;0.08;;;23.10;65.70;;;25.89;53.92;100860.84;3186824;30;131546;-72
2021/08/16 11:08:17;;;;;;;5.07;0.45;;;22.80;66.40;;;26.75;51.52;100868.09;3184306;38;130583;-72
2021/08/16 11:11:24;;;;;;;0.00;0.00;;;23.00;66.10;;;27.19;50.03;100876.31;3184669;38;131501;-72
2021/08/16 11:14:29;;;;;;;0.00;0.00;;;23.20;65.70;;;27.46;49.96;100870.47;3183072;30;131136;-72
2021/08/16 11:17:36;;;;;;;0.00;0.00;;;23.40;65.30;;;27.73;49.57;100882.38;3184420;38;129684;-72
2021/08/16 11:20:42;;;;;;;0.22;0.22;;;23.60;65.30;;;28.17;49.08;100873.84;3186387;30;131517;-72
2021/08/16 11:24:00;;;;;;;0.00;0.00;;;23.80;65.00;;;28.57;48.22;100872.88;3182274;38;130822;-73
2021/08/16 11:27:10;;;;;;;0.00;0.00;;;24.20;64.70;;;28.78;48.28;100878.00;3184336;30;129944;-72
2021/08/16 11:30:17;;;;;;;0.00;0.00;;;24.40;64.50;;;28.42;49.41;100885.31;3184115;38;131361;-72
2021/08/16 11:33:27;;;;;;;0.30;0.30;;;24.50;64.30;;;27.99;50.17;100900.09;3184411;38;129724;-72
2021/08/16 11:36:37;;;;;;;0.45;0.45;;;24.40;64.40;;;27.37;51.45;100927.22;3183552;30;131666;-72
2021/08/16 11:39:49;;;;;;;1.02;0.65;;;24.10;64.50;;;25.99;54.03;100945.16;3185765;38;131682;-72
2021/08/16 11:43:26;;;;;;;0.65;0.65;;;23.60;65.00;;;24.49;56.77;100991.91;3187534;38;130300;-73
2021/08/16 11:46:35;;;;;;;1.88;0.90;;;22.70;65.60;;;23.54;57.93;100997.38;3185913;38;131401;-73
2021/08/16 11:49:42;;;;;;;0.30;0.30;;;21.90;66.30;;;22.96;58.37;100999.25;3187070;30;130321;-73
2021/08/16 11:52:51;;;;;;;0.20;0.10;;;21.20;67.10;;;22.45;59.10;101003.84;3186341;30;131599;-73
2021/08/16 11:56:09;;;;;;;0.68;0.52;;;20.60;68.60;;;22.06;59.04;100994.41;3184932;38;130760;-72
2021/08/16 11:59:34;;;;;;;0.20;0.20;;;20.10;68.50;;;21.96;58.60;100992.34;3185137;38;131784;-72
2021/08/16 12:02:43;;;;;;;14.93;2.17;;;19.70;69.00;;;21.92;58.29;100990.72;3185173;38;130704;-72
2021/08/16 12:05:49;;;;;;;0.10;0.10;;;19.50;69.20;;;21.74;58.41;100995.13;3186070;38;130680;-73
2021/08/16 12:09:07;;;;;;;2.83;0.22;;;19.30;69.10;;;21.68;58.39;100996.63;3188223;30;129846;-72
2021/08/16 12:12:25;;;;;;;0.03;0.03;;;19.20;69.40;;;21.87;57.25;101000.00;3185811;38;131404;-72
2021/08/16 12:15:43;;;;;;;0.00;0.00;;;19.10;69.50;;;22.17;56.74;100995.31;3185201;38;131299;-72
2021/08/16 12:18:59;;;;;;;0.00;0.00;;;19.20;69.40;;;22.31;55.78;100995.47;3186399;38;130669;-72
2021/08/16 12:22:11;;;;;;;2.92;1.23;;;19.20;68.90;;;22.41;55.58;100994.81;3187328;38;130438;-73
2021/08/16 12:25:28;;;;;;;7.18;1.40;;;19.30;68.80;;;22.86;54.37;100997.22;3184947;38;130488;-72
2021/08/16 12:28:47;;;;;;;0.10;0.10;;;19.50;68.70;;;23.12;54.10;100994.31;3186477;30;130460;-72
2021/08/16 12:32:01;;;;;;;0.00;0.00;;;19.60;68.20;;;23.15;53.91;100994.38;3186187;38;130940;-72
2021/08/16 12:35:22;;;;;;;14.52;2.50;;;19.80;68.00;;;23.23;53.72;100989.75;3188008;30;131171;-72
2021/08/16 12:38:36;;;;;;;0.00;0.00;;;19.90;67.70;;;23.61;52.97;100994.66;3187975;38;131012;-72
2021/08/16 12:41:51;;;;;;;0.00;0.00;;;20.10;67.60;;;24.03;52.33;100985.53;3191654;30;129755;-72
2021/08/16 12:45:16;;;;;;;0.00;0.00;;;20.30;67.20;;;23.98;52.41;100990.59;3189211;38;130819;-72
2021/08/16 12:48:42;;;;;;;0.10;0.10;;;20.50;66.90;;;23.60;53.79;100993.09;3186754;38;129615;-71
2021/08/16 12:51:56;;;;;;;1.90;0.75;;;20.40;67.10;;;23.33;54.03;101000.75;3185260;38;129757;-72
2021/08/16 12:55:12;;;;;;;3.50;0.28;;;20.30;67.30;;;23.29;54.33;100993.69;3186044;30;130779;-73